Flight Track Log - Related Links

Times and Time Zones

All times are in EDT time to prevent confusion due to time zone crossing. See the N340KG flight status page for this flight to view local times or setup timezone preferences in your user account.

Time Position Orientation Groundspeed Altitude Reporting Facility
EDT Latitude Longitude Course Direction KTS MPH feet Rate Location/Type
Thu 07:18:21 PM 36.1167 -86.6833 68° East 113 130 1,100  Level Nashville TRACON
Thu 07:19:27 PM 36.1333 -86.6333 68° East 128 147 2,100 900 Climbing Nashville TRACON
Thu 07:20:21 PM 36.1333 -86.5833 90° East 150 173 2,900 842 Climbing Nashville TRACON
Thu 07:21:21 PM 36.1167 -86.5333 112° Southeast 153 176 3,700 900 Climbing Nashville TRACON
Thu 07:22:21 PM 36.1167 -86.4833 90° East 151 174 4,700 1,048 Climbing Nashville TRACON
Thu 07:23:27 PM 36.0833 -86.4667 158° South 151 174 5,900 1,050 Climbing Nashville TRACON
Thu 07:24:21 PM 36.0500 -86.4667 180° South 156 180 6,800 947 Climbing Nashville TRACON
Thu 07:25:21 PM 36.0000 -86.4833 195° South 159 183 7,700 950 Climbing Nashville TRACON
Thu 07:26:21 PM 35.9500 -86.4833 180° South 157 181 8,700 1,000 Climbing Nashville TRACON
Thu 07:27:21 PM 35.9167 -86.5000 202° Southwest 155 178 9,700 1,000 Climbing Nashville TRACON
Thu 07:28:21 PM 35.8667 -86.5167 195° South 155 178 10,700 926 Climbing Nashville TRACON
Thu 07:29:50 PM 35.8144 -86.5531 209° Southwest 154 177 12,000 805 Climbing Memphis Center
Thu 07:30:50 PM 35.7669 -86.5628 189° South 164 189 12,700 650 Climbing Memphis Center
Thu 07:31:50 PM 35.7147 -86.5653 182° South 183 211 13,300 600 Climbing Memphis Center
Thu 07:32:50 PM 35.6606 -86.5653 180° South 193 222 13,900 400 Climbing Memphis Center
Thu 07:33:50 PM 35.6061 -86.5525 169° South 199 229 14,100 100 Climbing Memphis Center
Thu 07:34:50 PM 35.5472 -86.5372 168° South 204 235 14,100  Level Memphis Center
Thu 07:35:50 PM 35.4903 -86.5219 168° South 209 241 14,100  Level Memphis Center
Thu 07:36:50 PM 35.4314 -86.5069 168° South 209 241 14,100  Level Memphis Center
Thu 07:37:50 PM 35.3747 -86.4892 166° South 209 241 14,100  Level Memphis Center
Thu 07:38:50 PM 35.3261 -86.4736 165° South 209 241 14,100  Level Memphis Center
Thu 07:39:50 PM 35.2692 -86.4508 162° South 209 241 14,100  Level Memphis Center
Thu 07:40:50 PM 35.2142 -86.4253 159° South 209 241 14,100  Level Memphis Center
Thu 07:41:50 PM 35.1589 -86.3975 158° South 214 246 14,100  Level Memphis Center
Thu 07:42:50 PM 35.1022 -86.3850 170° South 214 246 14,100  Level Memphis Center
Thu 07:43:50 PM 35.0389 -86.3650 166° South 214 246 14,100  Level Memphis Center
Thu 07:44:50 PM 34.9825 -86.3578 174° South 209 241 14,100  Level Memphis Center
Thu 07:45:50 PM 34.9197 -86.3531 176° South 209 241 14,100  Level Memphis Center
Thu 07:46:50 PM 34.8592 -86.3533 180° South 216 249 14,100  Level Memphis Center
Thu 07:47:50 PM 34.8050 -86.3533 180° South 216 249 14,100  Level Memphis Center
Thu 07:48:50 PM 34.7472 -86.3714 194° South 216 249 14,100  Level Memphis Center
Thu 07:49:50 PM 34.6914 -86.3867 193° South 216 249 14,100  Level Memphis Center
Thu 07:50:50 PM 34.6294 -86.4072 195° South 222 255 14,100  Level Memphis Center
Thu 07:51:50 PM 34.5736 -86.4250 195° South 222 255 14,100  Level Memphis Center
Thu 07:52:50 PM 34.5158 -86.4453 196° South 222 255 14,100  Level Memphis Center
Thu 07:53:50 PM 34.4600 -86.4628 194° South 222 255 14,100  Level Memphis Center
Thu 07:54:47 PM 34.4044 -86.4833 197° South 220 253 14,100  Level Atlanta Center
Thu 07:55:48 PM 34.3542 -86.4944 190° South 207 238 14,100 -200 Level Atlanta Center
Thu 07:56:47 PM 34.2953 -86.5156 196° South 207 238 13,700 -655 Descending Atlanta Center
Thu 07:57:47 PM 34.2322 -86.5364 195° South 220 253 12,800 -843 Descending Atlanta Center
Thu 07:58:48 PM 34.1672 -86.5569 195° South 234 269 12,000 -814 Descending Atlanta Center
Thu 07:59:45 PM 34.0997 -86.5850 199° South 235 270 11,200 -450 Descending Atlanta Center
Thu 08:00:48 PM 34.0453 -86.5983 191° South 239 275 11,100 -49 Descending Atlanta Center
Thu 08:01:48 PM 33.9864 -86.6167 194° South 233 268 11,100 -150 Level Atlanta Center
Thu 08:02:48 PM 33.9317 -86.6350 196° South 222 255 10,800 -450 Descending Atlanta Center
Thu 08:03:48 PM 33.8689 -86.6533 194° South 227 261 10,200 -1,261 Descending Atlanta Center
Thu 08:04:47 PM 33.8036 -86.6764 196° South 232 267 8,300 -2,400 Descending Atlanta Center
Thu 08:05:48 PM 33.7322 -86.6992 195° South 243 280 5,400 -1,686 Descending Atlanta Center
Thu 08:06:48 PM 33.6792 -86.7297 206° Southwest 241 277 4,900 -400 Descending Atlanta Center
Thu 08:07:48 PM 33.6331 -86.7458 196° South 207 238 4,600 -900 Descending Atlanta Center
Thu 08:08:48 PM 33.5828 -86.7567 190° South 174 200 3,100 -1,388 Descending Atlanta Center
Thu 08:10:15 PM 33.5850 -86.7494 70° East 126 145 1,200 -1,310 Descending Atlanta Center
Thu 08:12:00 PM 33.5639 -86.7523 196° South  Level Estimated
Thu 08:19:00 PM 33.5639 -86.7523 196° South  Level Estimated

Login

Don't have an account? Register now (free) for customized features, flight alerts, and more!